Time;durP1;ratioP1;P1;durP2;ratioP2;P2;SDS_P1;SDS_P2;PMS_P1;PMS_P2;Temp;Humidity;BMP_temperature;BMP_pressure;BME280_temperature;BME280_humidity;BME280_pressure;Samples;Min_cycle;Max_cycle;Signal;HPM_P1;HPM_P2
2022/09/30 00:01:14;;;;;;;7.22;3.72;;;;;;;10.88;90.38;97821.91;5097067;28;20043;-52
2022/09/30 00:04:00;;;;;;;8.23;3.78;;;;;;;10.89;90.54;97834.03;5095583;28;20561;-52
2022/09/30 00:06:45;;;;;;;6.38;3.50;;;;;;;10.93;90.69;97832.81;5092998;28;20043;-51
2022/09/30 00:09:30;;;;;;;5.50;3.72;;;;;;;10.90;91.06;97832.25;5092615;28;20428;-51
2022/09/30 00:12:15;;;;;;;6.53;3.40;;;;;;;10.91;91.47;97819.00;5100685;28;20103;-50
2022/09/30 00:15:00;;;;;;;5.80;3.88;;;;;;;10.78;91.92;97808.75;5094714;28;20058;-53
2022/09/30 00:17:44;;;;;;;5.57;3.83;;;;;;;10.68;93.14;97807.84;5092697;28;20429;-50
2022/09/30 00:20:29;;;;;;;6.65;4.22;;;;;;;10.64;93.41;97816.94;5097473;28;20526;-53
2022/09/30 00:23:13;;;;;;;5.30;4.07;;;;;;;10.62;94.14;97826.72;5090117;28;20492;-53
2022/09/30 00:26:00;;;;;;;11.38;4.32;;;;;;;10.74;93.37;97817.00;5096657;28;20036;-54
2022/09/30 00:28:50;;;;;;;6.25;4.70;;;;;;;10.77;93.45;97814.94;5091564;28;20447;-50
2022/09/30 00:31:35;;;;;;;6.82;4.60;;;;;;;10.72;93.76;97815.31;5096029;28;20136;-53
2022/09/30 00:34:19;;;;;;;7.22;4.75;;;;;;;10.81;93.38;97802.41;5092197;28;20048;-48
2022/09/30 00:37:04;;;;;;;5.97;4.25;;;;;;;10.76;93.63;97812.44;5105300;28;20485;-53
2022/09/30 00:39:49;;;;;;;6.78;4.60;;;;;;;10.70;94.11;97812.03;5097281;28;20122;-51
2022/09/30 00:42:34;;;;;;;6.28;4.22;;;;;;;10.66;94.67;97818.47;5097825;28;20039;-47
2022/09/30 00:45:18;;;;;;;5.40;3.70;;;;;;;10.76;94.09;97828.16;5092998;28;20077;-50
2022/09/30 00:48:11;;;;;;;5.80;3.83;;;;;;;10.69;94.34;97823.44;5093497;28;20493;-54
2022/09/30 00:50:56;;;;;;;7.57;3.90;;;;;;;10.85;93.72;97827.41;5097548;28;20050;-50
2022/09/30 00:53:54;;;;;;;5.28;3.83;;;;;;;10.79;94.21;97835.75;5100484;28;20035;-52
2022/09/30 00:56:48;;;;;;;5.88;3.65;;;;;;;10.88;93.40;97837.63;5091499;28;20071;-51
2022/09/30 00:59:42;;;;;;;5.15;3.90;;;;;;;10.85;93.96;97830.03;5116008;27;20093;-56
2022/09/30 01:02:26;;;;;;;6.60;4.05;;;;;;;10.82;93.71;97828.47;5101549;28;20044;-53
2022/09/30 01:05:12;;;;;;;4.72;3.50;;;;;;;10.86;94.02;97828.22;5088732;28;20165;-52
2022/09/30 01:08:00;;;;;;;5.90;3.72;;;;;;;10.80;94.32;97832.19;5089331;28;20040;-54
2022/09/30 01:10:45;;;;;;;6.90;3.70;;;;;;;10.78;94.44;97821.84;5090982;28;20112;-53
2022/09/30 01:13:32;;;;;;;5.72;3.78;;;;;;;10.79;94.47;97822.66;5099293;28;20043;-53
2022/09/30 01:16:35;;;;;;;5.72;4.00;;;;;;;10.83;94.46;97824.06;5097537;28;20036;-50
2022/09/30 01:19:38;;;;;;;5.85;3.70;;;;;;;10.73;95.33;97813.53;5093879;28;20519;-51
2022/09/30 01:23:00;;;;;;;5.57;3.90;;;;;;;10.80;95.17;97821.72;5092084;28;20067;-52
2022/09/30 01:26:09;;;;;;;6.90;4.05;;;;;;;10.72;95.59;97810.09;5092203;28;20478;-50
2022/09/30 01:29:05;;;;;;;5.28;3.63;;;;;;;10.88;94.92;97810.56;5091547;28;20399;-49
2022/09/30 01:32:16;;;;;;;7.72;4.60;;;;;;;10.80;95.02;97811.22;5086770;28;20111;-50
2022/09/30 01:35:14;;;;;;;6.82;4.80;;;;;;;10.76;95.75;97813.28;5091176;28;20047;-47
2022/09/30 01:38:11;;;;;;;6.85;3.92;;;;;;;10.86;95.55;97809.88;5092409;28;20036;-49
2022/09/30 01:41:07;;;;;;;6.15;3.83;;;;;;;10.83;95.28;97811.81;5101028;28;20043;-48
2022/09/30 01:44:03;;;;;;;5.75;4.20;;;;;;;10.85;95.36;97816.91;5102084;28;20042;-50
2022/09/30 01:47:00;;;;;;;6.47;4.75;;;;;;;10.84;95.61;97817.88;5093984;28;20078;-50
2022/09/30 01:50:04;;;;;;;6.03;4.20;;;;;;;10.92;94.99;97819.81;5098401;28;20051;-48
2022/09/30 01:53:23;;;;;;;8.43;4.53;;;;;;;10.90;95.27;97813.91;5090208;28;20051;-50
2022/09/30 01:56:19;;;;;;;6.70;4.43;;;;;;;11.01;94.78;97815.59;5092383;28;20056;-51
2022/09/30 01:59:09;;;;;;;6.47;4.57;;;;;;;11.02;94.44;97810.22;5088687;28;20386;-48
2022/09/30 02:02:05;;;;;;;5.55;4.32;;;;;;;11.01;94.64;97823.47;5095475;28;20462;-53
2022/09/30 02:04:57;;;;;;;7.25;4.57;;;;;;;10.92;95.72;97815.41;5098937;28;20051;-49
2022/09/30 02:07:47;;;;;;;7.20;4.47;;;;;;;10.91;97.06;97812.94;5083532;28;20498;-50
2022/09/30 02:10:38;;;;;;;5.82;4.18;;;;;;;10.92;96.67;97807.56;5090060;28;20475;-48
2022/09/30 02:13:29;;;;;;;6.22;4.65;;;;;;;10.93;96.75;97811.84;5091189;28;20475;-56
2022/09/30 02:16:21;;;;;;;6.47;4.10;;;;;;;11.00;96.88;97811.34;5092512;28;20097;-50
2022/09/30 02:19:25;;;;;;;6.57;4.80;;;;;;;10.96;96.47;97808.97;5095861;28;20511;-48
2022/09/30 02:22:21;;;;;;;6.00;4.00;;;;;;;10.93;96.77;97806.63;5094360;28;20044;-54
2022/09/30 02:25:09;;;;;;;5.78;4.25;;;;;;;10.87;96.99;97808.94;5096064;28;20064;-50
2022/09/30 02:28:00;;;;;;;7.00;3.83;;;;;;;10.88;96.77;97810.56;5094447;28;20419;-53
2022/09/30 02:30:49;;;;;;;6.13;3.75;;;;;;;10.81;97.32;97808.47;5096388;28;20097;-51
2022/09/30 02:33:39;;;;;;;5.53;3.83;;;;;;;10.85;97.00;97798.56;5095484;28;20043;-50
2022/09/30 02:36:45;;;;;;;6.93;4.35;;;;;;;10.95;97.07;97807.28;5095436;28;20052;-49
2022/09/30 02:39:48;;;;;;;5.38;4.13;;;;;;;10.88;97.64;97805.34;5096684;28;20135;-54
2022/09/30 02:42:33;;;;;;;5.75;4.07;;;;;;;10.84;97.84;97812.63;5102114;28;20036;-50
2022/09/30 02:45:22;;;;;;;7.03;4.75;;;;;;;10.76;98.66;97807.19;5102510;28;20111;-49
2022/09/30 02:48:22;;;;;;;6.38;4.45;;;;;;;10.77;99.60;97803.63;5084938;28;20070;-50
2022/09/30 02:51:17;;;;;;;7.72;4.65;;;;;;;10.89;99.00;97815.69;5102793;28;20047;-49
2022/09/30 02:54:34;;;;;;;6.25;4.50;;;;;;;10.87;99.31;97814.97;5099494;28;20078;-51
2022/09/30 02:57:34;;;;;;;6.90;4.38;;;;;;;10.86;99.59;97813.31;5097249;28;20054;-51
2022/09/30 03:00:18;;;;;;;6.57;4.30;;;;;;;10.88;99.89;97815.81;5103934;28;20121;-54
2022/09/30 03:03:21;;;;;;;6.80;4.82;;;;;;;10.92;99.62;97815.41;5101670;28;20043;-52
2022/09/30 03:06:06;;;;;;;5.45;3.80;;;;;;;11.02;99.17;97817.25;5096464;28;20115;-48
2022/09/30 03:08:52;;;;;;;6.53;4.22;;;;;;;10.98;100.00;97813.25;5100106;28;20081;-51
2022/09/30 03:11:37;;;;;;;6.85;4.53;;;;;;;10.87;100.00;97814.97;5103141;28;20114;-48
2022/09/30 03:14:38;;;;;;;8.73;4.32;;;;;;;10.89;100.00;97817.47;5103166;28;20131;-47
2022/09/30 03:17:59;;;;;;;6.07;4.07;;;;;;;10.88;100.00;97821.06;5093697;28;20078;-47
2022/09/30 03:20:49;;;;;;;6.85;4.38;;;;;;;10.80;100.00;97822.56;5098443;28;20039;-48
2022/09/30 03:23:35;;;;;;;9.35;4.43;;;;;;;10.77;100.00;97819.34;5104381;28;20043;-48
2022/09/30 03:26:33;;;;;;;6.95;4.47;;;;;;;10.57;100.00;97814.00;5106322;28;20122;-47
2022/09/30 03:29:18;;;;;;;6.88;4.30;;;;;;;10.57;100.00;97814.00;5095257;28;20410;-53
2022/09/30 03:32:07;;;;;;;6.10;4.13;;;;;;;10.52;100.00;97810.94;5105185;28;20088;-48
2022/09/30 03:35:11;;;;;;;5.55;4.00;;;;;;;10.55;100.00;97821.16;5097602;28;20157;-48
2022/09/30 03:38:24;;;;;;;5.85;3.53;;;;;;;10.52;100.00;97818.78;5092054;28;20044;-55
2022/09/30 03:41:30;;;;;;;5.03;3.63;;;;;;;10.51;100.00;97830.22;5118185;27;20036;-53
2022/09/30 03:44:21;;;;;;;5.03;3.40;;;;;;;10.55;100.00;97827.22;5114713;27;20042;-48
2022/09/30 03:47:10;;;;;;;6.05;3.83;;;;;;;10.43;100.00;97829.03;5100306;28;20032;-50
2022/09/30 03:49:59;;;;;;;8.68;3.60;;;;;;;10.51;100.00;97825.00;5090055;28;20503;-54
2022/09/30 03:52:44;;;;;;;5.70;3.47;;;;;;;10.52;100.00;97824.88;5094707;28;20036;-52
2022/09/30 03:55:32;;;;;;;6.45;3.65;;;;;;;10.38;100.00;97838.25;5093553;28;20062;-53
2022/09/30 03:58:19;;;;;;;6.07;3.83;;;;;;;10.20;100.00;97826.53;5099432;28;20062;-51
2022/09/30 04:01:03;;;;;;;6.07;3.50;;;;;;;10.28;100.00;97832.94;5095491;28;20126;-52
2022/09/30 04:03:52;;;;;;;5.60;3.25;;;;;;;10.28;100.00;97831.13;5099447;28;20036;-51
2022/09/30 04:06:37;;;;;;;5.82;3.42;;;;;;;10.31;100.00;97835.31;5095335;28;20164;-55
2022/09/30 04:09:22;;;;;;;5.40;3.30;;;;;;;10.27;100.00;97833.88;5097108;28;20063;-57
2022/09/30 04:12:08;;;;;;;4.25;3.08;;;;;;;10.34;100.00;97835.03;5094000;28;20082;-61
2022/09/30 04:14:53;;;;;;;4.57;2.83;;;;;;;10.55;100.00;97848.19;5102166;28;20194;-60
2022/09/30 04:17:37;;;;;;;5.80;2.80;;;;;;;10.59;100.00;97844.34;5101717;28;20052;-62
2022/09/30 04:20:22;;;;;;;5.22;3.15;;;;;;;10.60;100.00;97847.78;5090092;28;20028;-59
2022/09/30 04:23:07;;;;;;;4.05;2.97;;;;;;;10.69;100.00;97846.19;5097384;28;20564;-61
2022/09/30 04:25:58;;;;;;;6.20;3.00;;;;;;;10.78;100.00;97848.03;5110278;27;20028;-60
2022/09/30 04:28:43;;;;;;;6.10;3.50;;;;;;;10.64;100.00;97843.94;5101784;28;20071;-60
2022/09/30 04:31:27;;;;;;;4.88;2.70;;;;;;;10.62;100.00;97843.25;5091899;28;20044;-60
2022/09/30 04:34:12;;;;;;;4.40;2.95;;;;;;;10.46;100.00;97847.13;5101604;28;20494;-59
2022/09/30 04:36:58;;;;;;;4.03;2.83;;;;;;;10.50;100.00;97846.88;5106560;27;20048;-62
2022/09/30 04:39:43;;;;;;;4.43;3.20;;;;;;;10.65;100.00;97844.78;5105549;28;20042;-60
2022/09/30 04:42:28;;;;;;;4.32;3.10;;;;;;;10.65;100.00;97853.47;5106212;28;20478;-59
2022/09/30 04:45:13;;;;;;;5.38;3.40;;;;;;;10.57;100.00;97850.66;5106133;28;20036;-59
2022/09/30 04:48:00;;;;;;;4.63;3.42;;;;;;;10.85;100.00;97848.38;5094555;28;20052;-60
2022/09/30 04:50:44;;;;;;;6.45;4.40;;;;;;;10.70;100.00;97853.09;5107378;28;20179;-60
2022/09/30 04:53:29;;;;;;;6.07;3.83;;;;;;;10.59;100.00;97856.63;5108571;28;20045;-61
2022/09/30 04:56:18;;;;;;;5.60;4.10;;;;;;;10.67;100.00;97854.19;5094680;28;20043;-72
2022/09/30 04:59:17;;;;;;;6.00;4.22;;;;;;;10.68;100.00;97860.25;5096892;28;20065;-74
2022/09/30 05:02:02;;;;;;;5.90;3.58;;;;;;;10.57;100.00;97861.16;5090177;28;20044;-72
2022/09/30 05:04:54;;;;;;;;;;;;;;;10.51;100.00;97862.47;5107038;28;20038;-72
2022/09/30 05:07:39;;;;;;;5.80;3.70;;;;;;;10.48;100.00;97865.34;5099522;28;20359;-73
2022/09/30 05:10:30;;;;;;;5.82;3.60;;;;;;;10.39;100.00;97884.41;5096933;28;20771;-73
2022/09/30 05:13:16;;;;;;;4.35;3.55;;;;;;;10.19;100.00;97889.47;5078176;28;20061;-73
2022/09/30 05:16:01;;;;;;;4.00;3.10;;;;;;;10.21;100.00;97895.44;5104959;28;20035;-73
2022/09/30 05:18:45;;;;;;;5.25;2.95;;;;;;;10.23;100.00;97893.53;5098391;28;20678;-73
2022/09/30 05:21:30;;;;;;;4.47;3.55;;;;;;;10.27;100.00;97901.94;5098670;28;20051;-73
2022/09/30 05:24:18;;;;;;;4.32;3.63;;;;;;;10.23;100.00;97906.59;5092301;28;20059;-72
2022/09/30 05:27:03;;;;;;;5.22;4.18;;;;;;;10.21;100.00;97906.72;5101347;28;20046;-72
2022/09/30 05:29:48;;;;;;;4.18;3.20;;;;;;;10.29;100.00;97910.50;5089886;28;20128;-72
2022/09/30 05:32:32;;;;;;;4.82;3.13;;;;;;;10.31;100.00;97911.22;5091940;28;20170;-72
2022/09/30 05:35:17;;;;;;;5.32;3.55;;;;;;;10.41;100.00;97916.53;5092222;28;20052;-72
2022/09/30 05:38:03;;;;;;;4.60;3.80;;;;;;;10.33;100.00;97912.75;5090743;28;20036;-72
2022/09/30 05:40:47;;;;;;;4.15;3.00;;;;;;;10.12;100.00;97928.41;5089527;28;20082;-71
2022/09/30 05:43:32;;;;;;;4.18;3.08;;;;;;;10.06;100.00;97932.34;5098776;28;20083;-71
2022/09/30 05:46:18;;;;;;;5.32;2.80;;;;;;;10.15;100.00;97938.63;5097417;28;20098;-71
2022/09/30 05:49:05;;;;;;;3.17;2.20;;;;;;;10.23;100.00;97936.22;5098757;28;20058;-71
2022/09/30 05:51:50;;;;;;;5.18;3.28;;;;;;;10.28;100.00;97943.69;5101409;28;20533;-71
2022/09/30 05:54:35;;;;;;;2.88;1.52;;;;;;;10.30;100.00;97944.41;5090175;28;20540;-70
2022/09/30 05:57:19;;;;;;;3.58;1.70;;;;;;;10.41;100.00;97961.84;5089458;28;20036;-70
2022/09/30 06:00:05;;;;;;;2.97;2.35;;;;;;;10.40;100.00;97959.38;5091342;28;20111;-70
2022/09/30 06:02:56;;;;;;;5.05;2.45;;;;;;;10.40;100.00;97968.06;5090908;28;20070;-70
2022/09/30 06:06:13;;;;;;;3.45;1.95;;;;;;;10.42;100.00;97968.78;5099897;28;20032;-69
2022/09/30 06:09:09;;;;;;;3.25;2.30;;;;;;;10.41;100.00;97972.34;5088624;28;20410;-69
2022/09/30 06:11:56;;;;;;;2.53;1.83;;;;;;;10.27;100.00;97977.84;5092749;28;20044;-69
2022/09/30 06:14:41;;;;;;;3.42;1.75;;;;;;;10.26;100.00;97979.66;5095417;28;20048;-68
2022/09/30 06:17:25;;;;;;;2.15;1.80;;;;;;;10.12;100.00;97978.13;5091978;28;20111;-68
2022/09/30 06:20:10;;;;;;;4.28;1.60;;;;;;;9.95;100.00;97982.94;5090912;28;20534;-69
2022/09/30 06:22:59;;;;;;;2.10;1.42;;;;;;;9.98;100.00;97990.53;5096226;28;20331;-68
2022/09/30 06:25:44;;;;;;;2.28;1.25;;;;;;;9.94;100.00;97989.09;5106408;28;20373;-68
2022/09/30 06:28:28;;;;;;;1.50;1.13;;;;;;;10.13;100.00;97994.66;5103347;28;20058;-69
2022/09/30 06:31:13;;;;;;;3.10;1.45;;;;;;;10.14;100.00;97991.09;5090950;28;20051;-69
2022/09/30 06:34:00;;;;;;;1.60;1.40;;;;;;;10.16;100.00;98003.13;5101047;28;20169;-69
2022/09/30 06:36:45;;;;;;;2.22;1.08;;;;;;;10.27;100.00;98012.72;5106703;28;20498;-69
2022/09/30 06:39:29;;;;;;;2.30;1.25;;;;;;;10.34;100.00;98020.94;5091061;28;20024;-68
2022/09/30 06:42:14;;;;;;;2.45;1.02;;;;;;;10.39;100.00;98020.56;5089091;28;20039;-60
2022/09/30 06:44:59;;;;;;;1.48;1.00;;;;;;;10.51;100.00;98024.03;5100804;28;20050;-60
2022/09/30 06:47:45;;;;;;;1.02;0.93;;;;;;;10.39;100.00;98026.63;5095557;28;20089;-59
2022/09/30 06:50:31;;;;;;;1.42;0.90;;;;;;;10.36;100.00;98034.72;5090736;28;20056;-60
2022/09/30 06:53:16;;;;;;;1.33;1.02;;;;;;;10.37;100.00;98039.00;5090483;28;20057;-60
2022/09/30 06:56:00;;;;;;;1.85;0.90;;;;;;;10.46;100.00;98042.69;5087011;28;20127;-60
2022/09/30 06:58:45;;;;;;;1.48;0.90;;;;;;;10.40;100.00;98040.53;5087038;28;20468;-59
2022/09/30 07:01:30;;;;;;;2.67;1.20;;;;;;;10.29;100.00;98044.84;5083976;28;20102;-61
2022/09/30 07:04:15;;;;;;;1.65;1.40;;;;;;;10.25;100.00;98046.03;5089750;28;20082;-60
2022/09/30 07:06:59;;;;;;;2.03;1.40;;;;;;;10.27;100.00;98045.91;5088269;28;20036;-60
2022/09/30 07:09:43;;;;;;;2.55;1.13;;;;;;;10.33;100.00;98048.88;5100263;28;20024;-60
2022/09/30 07:12:28;;;;;;;1.85;1.10;;;;;;;10.32;100.00;98051.63;5090099;28;20040;-60
2022/09/30 07:15:13;;;;;;;1.85;0.98;;;;;;;10.37;100.00;98057.34;5095030;28;20158;-59
2022/09/30 07:17:57;;;;;;;2.97;1.50;;;;;;;10.39;100.00;98060.69;5089709;28;20052;-59
2022/09/30 07:20:47;;;;;;;2.30;1.83;;;;;;;10.29;100.00;98059.72;5090830;28;20040;-59
2022/09/30 07:23:31;;;;;;;2.03;1.63;;;;;;;10.32;100.00;98064.72;5103627;28;20050;-59
2022/09/30 07:26:20;;;;;;;2.72;2.00;;;;;;;10.31;100.00;98069.13;5091896;28;20036;-59
2022/09/30 07:29:06;;;;;;;3.13;1.45;;;;;;;10.50;100.00;98072.09;5092876;28;20123;-59
2022/09/30 07:31:50;;;;;;;2.13;1.52;;;;;;;10.61;100.00;98071.25;5090453;28;20129;-59
2022/09/30 07:34:35;;;;;;;2.95;1.42;;;;;;;10.69;100.00;98077.53;5074149;28;20070;-59
2022/09/30 07:37:20;;;;;;;1.73;1.20;;;;;;;10.70;100.00;98084.47;5091116;28;20548;-59
2022/09/30 07:40:07;;;;;;;1.88;1.30;;;;;;;10.67;100.00;98087.31;5095987;28;20405;-60
2022/09/30 07:42:51;;;;;;;2.97;1.60;;;;;;;10.51;100.00;98090.31;5087825;28;20508;-59
2022/09/30 07:45:38;;;;;;;2.58;1.48;;;;;;;10.48;100.00;98087.94;5092253;28;20066;-59
2022/09/30 07:51:34;;;;;;;2.50;1.40;;;;;;;10.67;100.00;98096.97;5093743;28;20149;-60
2022/09/30 07:54:21;;;;;;;2.67;1.70;;;;;;;10.82;100.00;98102.78;5093558;28;20056;-60
2022/09/30 07:57:08;;;;;;;2.97;1.70;;;;;;;10.84;100.00;98099.06;5075438;28;20036;-61
2022/09/30 07:59:52;;;;;;;2.70;1.58;;;;;;;10.91;100.00;98102.03;5094255;28;20870;-60
2022/09/30 08:02:37;;;;;;;2.30;1.58;;;;;;;11.17;100.00;98103.47;5087233;28;20062;-60
2022/09/30 08:05:23;;;;;;;2.40;1.75;;;;;;;11.25;100.00;98105.47;5090722;28;20607;-60
2022/09/30 08:08:08;;;;;;;3.42;2.53;;;;;;;11.24;100.00;98103.81;5089777;28;20052;-61
2022/09/30 08:10:57;;;;;;;3.17;2.20;;;;;;;11.28;100.00;98118.31;5092245;28;20123;-60
2022/09/30 08:13:42;;;;;;;2.85;2.05;;;;;;;11.41;100.00;98126.84;5098745;28;20074;-60
2022/09/30 08:16:27;;;;;;;2.83;1.95;;;;;;;11.58;100.00;98128.09;5094306;28;20389;-60
2022/09/30 08:19:20;;;;;;;2.72;2.00;;;;;;;11.64;100.00;98133.75;5096443;28;20090;-60
2022/09/30 08:22:09;;;;;;;4.60;2.53;;;;;;;11.51;100.00;98133.94;5089844;28;20032;-60
2022/09/30 08:24:54;;;;;;;3.67;2.33;;;;;;;11.13;100.00;98134.34;5115606;27;20056;-59
2022/09/30 08:27:59;;;;;;;2.53;1.98;;;;;;;11.07;100.00;98145.31;5122840;27;20127;-59
2022/09/30 08:30:44;;;;;;;2.90;2.40;;;;;;;11.18;100.00;98147.09;5026259;28;20495;-59
2022/09/30 08:33:28;;;;;;;4.78;2.28;;;;;;;11.36;100.00;98147.38;5025977;28;20405;-59
2022/09/30 08:36:18;;;;;;;3.40;2.15;;;;;;;11.41;100.00;98154.84;5045216;28;20155;-59
2022/09/30 08:39:04;;;;;;;2.78;1.77;;;;;;;11.57;100.00;98155.25;5047190;28;20048;-59
2022/09/30 08:42:34;;;;;;;3.13;2.28;;;;;;;11.44;100.00;98170.38;5047195;28;20156;-58
2022/09/30 08:45:38;;;;;;;4.32;2.53;;;;;;;11.89;100.00;98171.09;4943651;29;20119;-58
2022/09/30 08:48:54;;;;;;;4.10;2.90;;;;;;;11.53;100.00;98179.25;4948385;29;20566;-60
2022/09/30 08:51:44;;;;;;;5.53;3.38;;;;;;;11.55;100.00;98177.34;4947566;29;20042;-59
2022/09/30 08:54:34;;;;;;;4.10;2.50;;;;;;;11.80;100.00;98177.94;4951215;29;20086;-60
2022/09/30 08:57:19;;;;;;;3.28;2.55;;;;;;;11.92;100.00;98186.56;4950963;29;20318;-60
2022/09/30 09:00:09;;;;;;;5.35;2.67;;;;;;;11.86;100.00;98181.84;4948069;29;20660;-60
2022/09/30 09:02:56;;;;;;;5.05;2.90;;;;;;;11.64;100.00;98188.84;4949074;29;20122;-59
2022/09/30 09:05:53;;;;;;;3.20;2.65;;;;;;;11.75;100.00;98195.88;4948350;29;20043;-59
2022/09/30 09:08:38;;;;;;;3.58;2.47;;;;;;;12.16;100.00;98193.38;5018559;28;20388;-59
2022/09/30 09:11:38;;;;;;;4.93;2.08;;;;;;;11.90;100.00;98191.97;5025834;28;20072;-59
2022/09/30 09:14:43;;;;;;;4.55;3.13;;;;;;;12.02;100.00;98181.41;5016733;28;20492;-59
2022/09/30 09:17:57;;;;;;;5.05;3.03;;;;;;;11.91;100.00;98184.94;5025494;28;20140;-58
2022/09/30 09:20:52;;;;;;;4.50;3.00;;;;;;;11.68;100.00;98171.91;5025438;28;20044;-58
2022/09/30 09:23:37;;;;;;;3.60;2.17;;;;;;;11.90;100.00;98176.22;5093406;28;20075;-59
2022/09/30 09:26:23;;;;;;;2.58;1.67;;;;;;;12.97;100.00;98162.03;5097050;28;20123;-59
2022/09/30 09:29:45;;;;;;;5.28;2.35;;;;;;;14.59;100.00;98157.94;5101849;28;20163;-57
2022/09/30 09:32:30;;;;;;;4.68;3.22;;;;;;;14.36;92.44;98176.75;5098183;28;20031;-58
2022/09/30 09:35:26;;;;;;;2.75;1.63;;;;;;;13.55;100.00;98179.69;5096164;28;20147;-59
2022/09/30 09:38:34;;;;;;;3.30;1.70;;;;;;;15.18;94.78;98180.53;5096363;28;20039;-59
2022/09/30 09:41:22;;;;;;;5.97;2.67;;;;;;;15.34;91.61;98186.97;5092602;28;20040;-58
2022/09/30 09:44:16;;;;;;;3.40;2.65;;;;;;;15.20;89.10;98189.16;5099686;28;20102;-57
2022/09/30 09:47:12;;;;;;;4.45;3.42;;;;;;;13.88;93.72;98189.94;5095651;28;20055;-57
2022/09/30 09:50:00;;;;;;;3.75;2.70;;;;;;;14.28;100.00;98200.38;5100194;28;20064;-58
2022/09/30 09:53:03;;;;;;;4.72;3.00;;;;;;;14.58;94.86;98195.84;5098562;28;20487;-59
2022/09/30 09:55:54;;;;;;;4.82;2.40;;;;;;;15.45;95.45;98205.22;5096155;28;20046;-56
2022/09/30 09:59:02;;;;;;;4.10;3.20;;;;;;;15.22;84.57;98213.59;5093991;28;20798;-59
2022/09/30 10:01:52;;;;;;;4.60;2.97;;;;;;;15.36;91.12;98209.59;5102807;28;20143;-59
2022/09/30 10:04:49;;;;;;;4.50;2.70;;;;;;;15.86;89.09;98207.38;5099406;28;20107;-56
2022/09/30 10:07:34;;;;;;;5.22;3.03;;;;;;;16.55;86.70;98212.97;5102765;28;20067;-58
2022/09/30 10:10:19;;;;;;;7.53;3.47;;;;;;;16.24;88.25;98208.97;5095673;28;20387;-57
2022/09/30 10:13:04;;;;;;;6.20;3.42;;;;;;;16.45;84.32;98202.53;5096697;28;20039;-59
2022/09/30 10:15:53;;;;;;;7.55;3.83;;;;;;;15.50;88.05;98197.66;5097779;28;20471;-55
2022/09/30 10:18:39;;;;;;;14.90;5.17;;;;;;;15.11;97.74;98205.88;5098408;28;20044;-59
2022/09/30 10:21:27;;;;;;;8.00;3.67;;;;;;;15.87;97.69;98210.84;5101622;28;20054;-58
2022/09/30 10:24:29;;;;;;;3.72;2.80;;;;;;;15.29;88.69;98234.94;5095108;28;20040;-58
2022/09/30 10:27:33;;;;;;;4.85;3.47;;;;;;;14.72;89.25;98252.50;5099391;28;20086;-57
2022/09/30 10:30:31;;;;;;;5.65;3.17;;;;;;;15.18;88.63;98259.69;5089492;28;20063;-58
2022/09/30 10:33:24;;;;;;;5.57;3.22;;;;;;;15.05;93.14;98270.59;5088206;28;20032;-62
2022/09/30 10:36:19;;;;;;;4.25;3.28;;;;;;;15.10;92.46;98275.41;5101330;28;20051;-59
2022/09/30 10:39:18;;;;;;;4.97;3.00;;;;;;;15.01;94.85;98271.88;5095534;28;20119;-58
2022/09/30 10:42:20;;;;;;;5.10;3.38;;;;;;;15.83;87.43;98271.06;5112706;27;20062;-61
2022/09/30 10:45:37;;;;;;;5.25;3.00;;;;;;;16.44;81.86;98273.06;5121787;27;20069;-58
2022/09/30 10:48:24;;;;;;;5.43;4.30;;;;;;;14.54;86.71;98292.78;5088784;28;20045;-54
2022/09/30 10:51:22;;;;;;;5.03;3.70;;;;;;;12.83;96.95;98294.69;5109061;28;20470;-57
2022/09/30 10:54:39;;;;;;;6.65;4.43;;;;;;;12.34;100.00;98287.34;5100813;28;20121;-60
2022/09/30 10:57:25;;;;;;;5.00;4.00;;;;;;;12.24;100.00;98287.28;5099216;28;20044;-62
2022/09/30 11:00:17;;;;;;;6.13;3.67;;;;;;;12.17;100.00;98285.19;5095624;28;20047;-62
2022/09/30 11:03:11;;;;;;;5.50;4.20;;;;;;;11.96;100.00;98295.63;5098335;28;20081;-52
2022/09/30 11:05:57;;;;;;;5.75;4.05;;;;;;;12.17;100.00;98311.44;5102119;28;20047;-55
2022/09/30 11:09:04;;;;;;;6.93;4.32;;;;;;;12.61;100.00;98322.78;5105689;27;20063;-53
2022/09/30 11:12:12;;;;;;;6.35;3.80;;;;;;;12.49;100.00;98325.47;5097760;28;20035;-54
2022/09/30 11:15:07;;;;;;;7.13;4.22;;;;;;;12.52;100.00;98329.63;5088017;28;20119;-56
2022/09/30 11:18:13;;;;;;;7.20;4.78;;;;;;;12.85;100.00;98322.47;5088456;28;20139;-57
2022/09/30 11:21:04;;;;;;;6.40;4.97;;;;;;;12.79;100.00;98315.13;5084789;28;20094;-56
2022/09/30 11:23:59;;;;;;;7.40;5.28;;;;;;;12.78;100.00;98329.22;5083521;28;20541;-56
2022/09/30 11:26:44;;;;;;;7.47;4.65;;;;;;;12.95;100.00;98333.06;5090368;28;20044;-50
2022/09/30 11:29:31;;;;;;;8.45;5.18;;;;;;;12.84;100.00;98341.00;5074812;28;20420;-59
2022/09/30 11:32:34;;;;;;;8.13;5.70;;;;;;;12.41;100.00;98343.66;5090168;28;20070;-53
2022/09/30 11:35:28;;;;;;;7.72;5.60;;;;;;;12.66;100.00;98354.75;5070310;28;20040;-54
2022/09/30 11:38:37;;;;;;;9.43;5.80;;;;;;;12.77;100.00;98357.31;5067661;28;20443;-53
2022/09/30 11:41:34;;;;;;;8.90;6.35;;;;;;;12.48;100.00;98362.38;5091043;28;21027;-58
2022/09/30 11:44:34;;;;;;;8.93;6.53;;;;;;;12.36;100.00;98377.34;5100110;28;20539;-52
2022/09/30 11:47:27;;;;;;;9.07;6.70;;;;;;;12.43;100.00;98378.53;5090889;28;20044;-52
2022/09/30 11:50:30;;;;;;;12.13;7.05;;;;;;;12.54;100.00;98375.84;5061347;28;20618;-49
2022/09/30 11:53:39;;;;;;;;;;;;;;;12.64;100.00;98378.53;5101402;28;20467;-55
2022/09/30 11:56:34;;;;;;;9.20;6.45;;;;;;;12.61;100.00;98381.41;5099620;28;19916;-53
2022/09/30 11:59:25;;;;;;;10.32;6.88;;;;;;;12.71;100.00;98372.75;5101184;28;20064;-51
2022/09/30 12:02:35;;;;;;;8.50;6.72;;;;;;;12.94;100.00;98382.16;5093599;28;20131;-52
2022/09/30 12:05:23;;;;;;;8.55;6.80;;;;;;;12.71;100.00;98370.13;5108293;28;20455;-54
2022/09/30 12:08:58;;;;;;;9.02;6.40;;;;;;;12.94;100.00;98370.84;5091555;28;20032;-55
2022/09/30 12:11:54;;;;;;;9.55;6.38;;;;;;;13.04;96.30;98363.81;5063423;28;20045;-59
2022/09/30 12:14:41;;;;;;;9.50;5.55;;;;;;;13.57;93.48;98361.13;5069889;28;20094;-54
2022/09/30 12:17:32;;;;;;;7.43;5.18;;;;;;;13.45;91.01;98376.16;5075803;28;20052;-58
2022/09/30 12:20:28;;;;;;;8.35;5.28;;;;;;;13.94;89.19;98372.03;5055565;28;20056;-59
2022/09/30 12:23:29;;;;;;;6.72;4.72;;;;;;;13.72;95.51;98377.38;5066680;28;20094;-48
2022/09/30 12:26:15;;;;;;;7.83;4.77;;;;;;;14.10;91.71;98385.47;5072069;28;20044;-51
2022/09/30 12:32:45;;;;;;;5.68;3.95;;;;;;;16.06;89.18;98380.78;5061562;28;20123;-62
2022/09/30 12:36:02;;;;;;;6.47;4.75;;;;;;;15.14;80.58;98382.31;5027842;28;20053;-64
2022/09/30 12:39:19;;;;;;;5.10;4.05;;;;;;;15.14;84.22;98392.88;5012286;28;20041;-61
2022/09/30 12:42:09;;;;;;;6.57;5.18;;;;;;;14.29;86.85;98394.34;5002235;28;20587;-60
2022/09/30 12:45:08;;;;;;;5.90;4.55;;;;;;;13.81;88.94;98390.72;5026911;28;20065;-59
2022/09/30 12:47:59;;;;;;;6.75;4.82;;;;;;;13.47;91.24;98397.06;5026083;28;20041;-60
2022/09/30 12:50:51;;;;;;;6.68;4.65;;;;;;;13.65;89.19;98408.66;5033566;28;20040;-58
2022/09/30 12:53:38;;;;;;;6.55;4.78;;;;;;;13.44;90.84;98411.34;5052954;28;20053;-58
2022/09/30 12:56:27;;;;;;;6.75;4.40;;;;;;;13.28;93.38;98409.19;5061094;28;20040;-59
2022/09/30 12:59:13;;;;;;;7.68;5.15;;;;;;;13.18;92.76;98409.97;5054113;28;20397;-59
2022/09/30 13:02:02;;;;;;;7.05;4.70;;;;;;;13.40;93.13;98409.91;5060267;28;20045;-58
2022/09/30 13:04:49;;;;;;;6.43;4.35;;;;;;;13.84;91.55;98414.94;5069177;28;20049;-58
2022/09/30 13:07:33;;;;;;;7.50;4.53;;;;;;;13.87;91.42;98413.84;5051093;28;20087;-59
2022/09/30 13:10:25;;;;;;;7.22;4.72;;;;;;;14.00;89.87;98408.34;5055001;28;20049;-58
2022/09/30 13:13:10;;;;;;;7.05;4.63;;;;;;;13.82;90.23;98426.59;5091245;28;21762;-59
2022/09/30 13:16:01;;;;;;;6.53;4.90;;;;;;;13.32;89.92;98426.38;5100113;28;20052;-59
2022/09/30 13:18:46;;;;;;;;;;;;;;;13.47;91.24;98447.06;5096606;28;20050;-59
2022/09/30 13:21:31;;;;;;;5.95;4.25;;;;;;;13.43;91.79;98449.16;5094058;28;19919;-58
2022/09/30 13:24:16;;;;;;;6.68;4.70;;;;;;;13.40;90.99;98442.31;5101369;28;20047;-58
2022/09/30 13:27:15;;;;;;;6.88;4.80;;;;;;;13.14;91.57;98453.28;5100418;27;20082;-60
2022/09/30 13:30:14;;;;;;;7.22;4.20;;;;;;;13.33;93.10;98453.50;5109323;27;20052;-62